Time;durP1;ratioP1;P1;durP2;ratioP2;P2;SDS_P1;SDS_P2;PMS_P1;PMS_P2;Temp;Humidity;BMP_temperature;BMP_pressure;BME280_temperature;BME280_humidity;BME280_pressure;Samples;Min_cycle;Max_cycle;Signal;HPM_P1;HPM_P2
2022/10/29 00:01:11;;;;;;;17.23;5.87;;;;;;;17.48;78.02;100459.84;5050628;28;20083;-87
2022/10/29 00:03:36;;;;;;;15.67;6.50;;;;;;;17.52;77.71;100455.38;5032744;28;20289;-85
2022/10/29 00:06:05;;;;;;;17.52;7.60;;;;;;;17.53;78.07;100456.22;5022353;28;20710;-85
2022/10/29 00:08:32;;;;;;;20.05;6.20;;;;;;;17.45;78.26;100457.69;5031186;28;20609;-83
2022/10/29 00:11:15;;;;;;;18.08;5.70;;;;;;;17.38;78.50;100452.53;5024608;28;20030;-82
2022/10/29 00:13:42;;;;;;;16.63;6.30;;;;;;;17.31;79.05;100447.38;5021275;28;20164;-84
2022/10/29 00:16:10;;;;;;;20.25;6.82;;;;;;;17.30;78.94;100451.25;5020512;28;20086;-82
2022/10/29 00:18:35;;;;;;;20.17;7.40;;;;;;;17.16;79.36;100464.91;5019191;28;20037;-85
2022/10/29 00:21:05;;;;;;;16.20;6.05;;;;;;;17.27;79.09;100452.66;5018279;28;20041;-83
2022/10/29 00:23:31;;;;;;;18.30;7.43;;;;;;;17.28;79.14;100453.47;5020124;28;20033;-86
2022/10/29 00:25:57;;;;;;;20.50;6.45;;;;;;;17.17;80.14;100447.25;5020088;28;20039;-86
2022/10/29 00:28:23;;;;;;;13.88;5.70;;;;;;;17.21;79.95;100444.72;5015953;28;20060;-85
2022/10/29 00:30:49;;;;;;;21.63;7.10;;;;;;;17.12;80.21;100444.53;5019816;28;20041;-86
2022/10/29 00:33:17;;;;;;;17.87;6.43;;;;;;;17.13;80.20;100451.72;5021214;28;20032;-86
2022/10/29 00:35:42;;;;;;;15.10;5.85;;;;;;;17.07;80.48;100455.59;5019511;28;20255;-85
2022/10/29 00:38:08;;;;;;;15.10;5.63;;;;;;;17.02;80.77;100456.50;5030026;28;20030;-85
2022/10/29 00:40:37;;;;;;;23.15;7.05;;;;;;;17.08;80.71;100460.84;5029774;28;20035;-86
2022/10/29 00:43:17;;;;;;;22.17;5.22;;;;;;;17.37;78.93;100462.72;5029796;28;20045;-82
2022/10/29 00:46:05;;;;;;;16.77;5.78;;;;;;;17.41;78.88;100462.16;5030204;28;20120;-84
2022/10/29 00:48:35;;;;;;;22.58;6.35;;;;;;;17.41;79.25;100460.19;5030126;28;20029;-86
2022/10/29 00:51:04;;;;;;;21.27;7.53;;;;;;;17.27;79.82;100469.19;5010589;28;20025;-83
2022/10/29 00:53:33;;;;;;;14.95;7.32;;;;;;;17.38;79.68;100458.88;5021773;28;20041;-78
2022/10/29 00:56:02;;;;;;;15.50;5.50;;;;;;;17.43;79.46;100451.66;5029522;28;20048;-86
2022/10/29 00:58:27;;;;;;;19.23;6.22;;;;;;;17.34;79.86;100446.78;5030189;28;20029;-86
2022/10/29 01:00:53;;;;;;;14.38;5.63;;;;;;;17.30;80.24;100445.75;5030343;28;20037;-84
2022/10/29 01:03:18;;;;;;;25.17;7.70;;;;;;;17.31;80.32;100446.56;5029246;28;20545;-85
2022/10/29 01:05:45;;;;;;;19.50;7.03;;;;;;;17.44;79.09;100443.09;5029945;28;20564;-86
2022/10/29 01:08:12;;;;;;;15.70;6.22;;;;;;;17.32;80.12;100451.78;5027889;28;20282;-86
2022/10/29 01:10:55;;;;;;;18.45;5.00;;;;;;;17.30;80.37;100450.44;5030356;28;20033;-83
2022/10/29 01:13:47;;;;;;;19.08;6.38;;;;;;;17.13;80.80;100447.03;5028697;28;20067;-84
2022/10/29 01:16:24;;;;;;;29.48;7.72;;;;;;;17.19;80.98;100438.72;5030059;28;20069;-85
2022/10/29 01:19:08;;;;;;;16.98;6.22;;;;;;;17.07;81.33;100437.16;5030413;28;20033;-85
2022/10/29 01:21:48;;;;;;;12.23;5.15;;;;;;;17.06;81.09;100442.94;5029663;28;20042;-85
2022/10/29 01:24:29;;;;;;;17.55;8.57;;;;;;;17.03;81.37;100438.84;5029144;28;20033;-86
2022/10/29 01:27:03;;;;;;;18.75;5.47;;;;;;;16.94;81.36;100438.69;5029453;28;20543;-85
2022/10/29 01:29:52;;;;;;;20.30;6.75;;;;;;;16.83;81.59;100443.47;5029965;28;20041;-83
2022/10/29 01:32:32;;;;;;;19.10;6.82;;;;;;;16.73;81.68;100432.53;5028712;28;20041;-86
2022/10/29 01:35:11;;;;;;;15.13;5.97;;;;;;;16.63;82.29;100434.28;5011933;28;20486;-86
2022/10/29 01:37:52;;;;;;;18.58;6.63;;;;;;;16.56;82.63;100440.13;5029619;28;20037;-86
2022/10/29 01:40:45;;;;;;;18.63;6.30;;;;;;;16.50;82.86;100435.78;5029457;28;20029;-86
2022/10/29 01:43:16;;;;;;;16.33;6.82;;;;;;;16.41;82.68;100437.50;5029494;28;20033;-83
2022/10/29 01:45:47;;;;;;;16.20;6.65;;;;;;;16.40;83.09;100428.44;5029736;28;20029;-86
2022/10/29 01:48:17;;;;;;;16.98;5.88;;;;;;;16.40;83.00;100420.16;5011069;28;20034;-83
2022/10/29 01:50:47;;;;;;;16.02;7.85;;;;;;;16.32;83.04;100418.03;5029621;28;20029;-85
2022/10/29 01:53:12;;;;;;;14.90;6.07;;;;;;;16.36;82.96;100410.84;5011392;28;20064;-85
2022/10/29 01:55:38;;;;;;;13.30;5.35;;;;;;;16.20;83.85;100411.00;5030097;28;20064;-84
2022/10/29 01:58:04;;;;;;;15.63;7.10;;;;;;;16.25;83.73;100401.84;5029330;28;20109;-85
2022/10/29 02:01:10;;;;;;;17.23;7.65;;;;;;;16.33;83.56;100414.19;5029069;28;20719;-85
2022/10/29 02:04:02;;;;;;;16.77;7.18;;;;;;;16.50;83.06;100400.00;5025493;28;20041;-86
2022/10/29 02:07:01;;;;;;;17.20;6.60;;;;;;;16.45;83.36;100381.59;5029667;28;20112;-85
2022/10/29 02:09:34;;;;;;;20.73;8.38;;;;;;;16.50;83.09;100386.22;5029854;28;20034;-87
2022/10/29 02:12:24;;;;;;;14.77;6.07;;;;;;;16.31;83.35;100388.91;5022001;28;20362;-87
2022/10/29 02:15:05;;;;;;;22.02;6.40;;;;;;;16.35;83.44;100400.97;5029326;28;20381;-86
2022/10/29 02:17:32;;;;;;;12.27;5.70;;;;;;;16.25;83.55;100388.09;5029894;28;20118;-87
2022/10/29 02:19:57;;;;;;;16.77;6.18;;;;;;;16.19;83.89;100389.28;5028514;28;20037;-86
2022/10/29 02:22:22;;;;;;;15.10;6.03;;;;;;;16.17;83.93;100394.25;5027978;28;20036;-85
2022/10/29 02:24:47;;;;;;;19.33;6.67;;;;;;;16.10;84.24;100389.88;5029998;28;20381;-84
2022/10/29 02:27:13;;;;;;;17.03;5.83;;;;;;;16.18;83.94;100390.38;5029743;28;20251;-85
2022/10/29 02:29:38;;;;;;;13.77;5.65;;;;;;;16.15;84.39;100388.22;5029515;28;20773;-86
2022/10/29 02:32:03;;;;;;;13.00;5.47;;;;;;;16.12;84.26;100389.59;5028972;28;20030;-85
2022/10/29 02:34:29;;;;;;;21.33;7.57;;;;;;;16.30;84.04;100379.00;5029061;28;20250;-85
2022/10/29 02:36:54;;;;;;;11.37;5.73;;;;;;;16.33;83.57;100370.16;5029026;28;20044;-86
2022/10/29 02:39:19;;;;;;;12.90;5.33;;;;;;;16.15;84.46;100375.25;5029294;28;20119;-86
2022/10/29 02:41:44;;;;;;;22.47;7.00;;;;;;;16.07;84.73;100378.63;5029053;28;20266;-81
2022/10/29 02:44:10;;;;;;;13.90;6.23;;;;;;;16.13;84.68;100374.72;5030580;28;20294;-85
2022/10/29 02:46:38;;;;;;;11.67;5.57;;;;;;;16.05;84.61;100372.59;5032470;28;20517;-86
2022/10/29 02:49:04;;;;;;;17.27;7.30;;;;;;;15.91;85.09;100364.97;5032668;28;20116;-85
2022/10/29 02:51:29;;;;;;;19.98;7.00;;;;;;;15.90;85.18;100368.84;5032407;28;20116;-85
2022/10/29 02:53:54;;;;;;;20.80;7.33;;;;;;;15.72;85.33;100367.59;5032366;28;20463;-87
2022/10/29 02:56:20;;;;;;;15.23;7.22;;;;;;;15.81;85.50;100362.28;5032495;28;20285;-86
2022/10/29 02:58:45;;;;;;;14.20;5.40;;;;;;;15.70;85.53;100362.34;5032857;28;20040;-86
2022/10/29 03:01:10;;;;;;;16.20;6.33;;;;;;;15.71;85.79;100355.75;5032473;28;20263;-86
2022/10/29 03:03:35;;;;;;;19.70;6.93;;;;;;;15.73;85.62;100360.97;5031668;28;20377;-85
2022/10/29 03:06:01;;;;;;;17.80;6.45;;;;;;;15.61;85.81;100358.56;5032476;28;20155;-83
2022/10/29 03:08:26;;;;;;;18.77;7.45;;;;;;;15.58;86.34;100356.41;5032199;28;20064;-86
2022/10/29 03:10:54;;;;;;;15.45;6.57;;;;;;;15.54;86.03;100358.06;5032021;28;20030;-87
2022/10/29 03:13:19;;;;;;;16.02;6.30;;;;;;;15.56;85.78;100353.91;5031973;28;20036;-87
2022/10/29 03:15:45;;;;;;;20.60;6.67;;;;;;;15.58;86.07;100356.41;5032051;28;20034;-87
2022/10/29 03:18:10;;;;;;;24.08;7.03;;;;;;;15.54;86.18;100360.81;5031754;28;20612;-84
2022/10/29 03:20:35;;;;;;;17.83;8.02;;;;;;;15.50;86.40;100364.13;5032296;28;20036;-86
2022/10/29 03:23:01;;;;;;;16.40;7.40;;;;;;;15.55;86.21;100363.28;5031108;28;20087;-84
2022/10/29 03:25:26;;;;;;;18.57;7.10;;;;;;;15.67;85.86;100368.44;5031794;28;20728;-86
2022/10/29 03:27:51;;;;;;;16.30;6.78;;;;;;;15.57;86.09;100368.50;5031675;28;20270;-86
2022/10/29 03:30:17;;;;;;;13.27;6.57;;;;;;;15.66;85.89;100364.06;5031579;28;20037;-85
2022/10/29 03:32:44;;;;;;;13.52;6.03;;;;;;;15.62;86.07;100357.47;5031211;28;20798;-85
2022/10/29 03:35:11;;;;;;;17.65;6.75;;;;;;;15.58;86.57;100356.41;5031393;28;20029;-84
2022/10/29 03:37:36;;;;;;;15.98;6.50;;;;;;;15.50;86.70;100361.38;5031379;28;20391;-85
2022/10/29 03:40:02;;;;;;;18.40;5.90;;;;;;;15.63;86.85;100353.59;5031493;28;20091;-86
2022/10/29 03:42:30;;;;;;;19.23;7.05;;;;;;;15.83;85.80;100346.31;5031330;28;20063;-86
2022/10/29 03:44:56;;;;;;;15.35;6.50;;;;;;;15.91;85.65;100356.72;5031468;28;20038;-84
2022/10/29 03:47:21;;;;;;;34.63;6.72;;;;;;;15.94;85.57;100356.16;5031198;28;20065;-88
2022/10/29 03:49:47;;;;;;;17.03;7.57;;;;;;;15.91;86.08;100340.22;5031353;28;20065;-87
2022/10/29 03:52:12;;;;;;;14.40;6.17;;;;;;;15.85;86.57;100344.09;5030538;28;20534;-86
2022/10/29 03:54:37;;;;;;;21.37;6.53;;;;;;;15.97;86.24;100352.81;5030705;28;20449;-85
2022/10/29 03:57:02;;;;;;;21.17;7.07;;;;;;;15.92;86.45;100350.13;5030836;28;20644;-85
2022/10/29 03:59:27;;;;;;;12.00;6.27;;;;;;;15.87;86.61;100358.38;5030881;28;20259;-87
2022/10/29 04:01:53;;;;;;;14.40;6.63;;;;;;;15.92;86.45;100360.28;5031162;28;20316;-85
2022/10/29 04:04:18;;;;;;;20.83;6.73;;;;;;;16.03;86.24;100355.56;5030084;28;20643;-86
2022/10/29 04:06:43;;;;;;;17.87;5.90;;;;;;;16.00;86.36;100356.94;5030555;28;20052;-86
2022/10/29 04:09:09;;;;;;;18.30;7.15;;;;;;;15.94;86.52;100356.16;5030729;28;20270;-85
2022/10/29 04:11:34;;;;;;;15.05;5.97;;;;;;;16.01;86.08;100357.75;5031296;28;20097;-85
2022/10/29 04:13:59;;;;;;;18.00;7.13;;;;;;;16.01;86.17;100346.75;5032126;28;20033;-85
2022/10/29 04:16:24;;;;;;;11.10;6.20;;;;;;;15.96;86.50;100350.38;5012628;28;20767;-87
2022/10/29 04:18:50;;;;;;;15.67;7.37;;;;;;;15.94;86.80;100347.91;5030865;28;20249;-84
2022/10/29 04:21:16;;;;;;;16.93;7.67;;;;;;;15.83;87.27;100329.81;5030408;28;20255;-85
2022/10/29 04:23:42;;;;;;;20.05;7.55;;;;;;;15.95;86.68;100322.03;5030141;28;20279;-85
2022/10/29 04:26:07;;;;;;;14.93;7.10;;;;;;;15.86;86.81;100326.53;5030992;28;20032;-85
2022/10/29 04:28:32;;;;;;;13.80;6.57;;;;;;;15.90;86.41;100318.50;5030289;28;20052;-84
2022/10/29 04:31:05;;;;;;;11.20;5.93;;;;;;;15.88;86.39;100327.84;5030817;28;20124;-85
2022/10/29 04:33:31;;;;;;;13.37;6.67;;;;;;;15.90;86.14;100324.84;5029423;28;20625;-85
2022/10/29 04:35:56;;;;;;;14.23;5.95;;;;;;;15.73;86.26;100328.81;5030318;28;20033;-87
2022/10/29 04:38:21;;;;;;;23.27;8.77;;;;;;;15.73;86.31;100320.56;5030007;28;20459;-87
2022/10/29 04:40:47;;;;;;;21.20;6.35;;;;;;;15.66;86.55;100320.06;5030152;28;20251;-87
2022/10/29 04:43:12;;;;;;;26.60;8.27;;;;;;;15.67;86.38;100320.88;5030333;28;20258;-83
2022/10/29 04:45:38;;;;;;;21.17;6.50;;;;;;;15.65;86.82;100323.91;5030071;28;20117;-86
2022/10/29 04:48:04;;;;;;;22.15;8.68;;;;;;;15.71;86.54;100328.28;5029987;28;20033;-81
2022/10/29 04:50:31;;;;;;;14.82;7.10;;;;;;;15.88;86.10;100335.31;5030174;28;20040;-82
2022/10/29 04:53:00;;;;;;;18.98;6.13;;;;;;;16.09;85.34;100333.22;5029791;28;20048;-86
2022/10/29 04:55:27;;;;;;;14.02;6.93;;;;;;;16.24;84.50;100328.69;5030801;28;20071;-86
2022/10/29 04:57:52;;;;;;;20.98;8.70;;;;;;;16.36;84.06;100313.72;5029949;28;20044;-82
2022/10/29 05:00:18;;;;;;;19.95;7.32;;;;;;;16.45;83.55;100296.28;5029855;28;20133;-84
2022/10/29 05:02:51;;;;;;;25.65;6.72;;;;;;;16.44;83.61;100293.84;5029410;28;20151;-83
2022/10/29 05:05:18;;;;;;;20.55;6.78;;;;;;;16.49;83.34;100292.97;5029909;28;20106;-87
2022/10/29 05:07:43;;;;;;;17.98;5.97;;;;;;;16.45;83.57;100296.28;5029625;28;20050;-85
2022/10/29 05:10:09;;;;;;;16.90;6.38;;;;;;;16.60;82.56;100296.44;5029522;28;20030;-84
2022/10/29 05:12:37;;;;;;;23.52;6.78;;;;;;;16.55;83.33;100291.81;5029875;28;20038;-85
2022/10/29 05:15:06;;;;;;;15.77;5.88;;;;;;;16.62;82.86;100289.50;5029377;28;20071;-82
2022/10/29 05:17:37;;;;;;;12.10;5.60;;;;;;;16.65;82.78;100275.16;5029525;28;20475;-82
2022/10/29 05:20:02;;;;;;;17.17;6.45;;;;;;;16.48;83.45;100278.38;5030039;28;20463;-85
2022/10/29 05:22:28;;;;;;;15.52;5.18;;;;;;;16.36;83.98;100259.53;5029059;28;20037;-84
2022/10/29 05:24:53;;;;;;;12.70;6.03;;;;;;;16.51;83.20;100255.78;5029519;28;20025;-84
2022/10/29 05:27:18;;;;;;;15.83;5.87;;;;;;;16.68;82.21;100255.31;5029053;28;20033;-86
2022/10/29 05:29:43;;;;;;;20.87;6.03;;;;;;;16.70;81.41;100257.75;5029827;28;20312;-86
2022/10/29 05:32:09;;;;;;;14.83;4.67;;;;;;;16.71;82.07;100267.66;5029341;28;20394;-85
2022/10/29 05:34:34;;;;;;;16.87;6.47;;;;;;;16.70;82.41;100268.75;5029254;28;20255;-85
2022/10/29 05:36:59;;;;;;;13.87;6.07;;;;;;;16.69;81.73;100278.97;5029829;28;20033;-86
2022/10/29 05:39:24;;;;;;;16.00;5.20;;;;;;;16.57;82.54;100286.81;5029426;28;20286;-86
2022/10/29 05:41:50;;;;;;;26.33;7.00;;;;;;;16.64;81.91;100286.44;5030366;28;20042;-88
2022/10/29 05:44:15;;;;;;;17.33;4.97;;;;;;;16.67;81.47;100292.22;5029110;28;20274;-86
2022/10/29 05:46:40;;;;;;;15.40;6.60;;;;;;;16.76;81.28;100291.56;5029853;28;20392;-84
2022/10/29 05:49:05;;;;;;;14.37;5.90;;;;;;;16.71;81.12;100280.59;5028534;28;20258;-86
2022/10/29 05:51:31;;;;;;;25.83;7.23;;;;;;;16.77;80.83;100276.69;5029874;28;20294;-85
2022/10/29 05:53:56;;;;;;;12.40;6.23;;;;;;;16.74;80.85;100271.78;5029528;28;20287;-85
2022/10/29 05:56:21;;;;;;;15.20;5.87;;;;;;;16.68;80.53;100277.31;5029193;28;20254;-85
2022/10/29 05:58:50;;;;;;;17.13;6.30;;;;;;;16.65;80.72;100272.41;5029338;28;20266;-88
2022/10/29 06:01:18;;;;;;;21.38;5.80;;;;;;;16.62;80.72;100275.75;5029613;28;20259;-85
2022/10/29 06:03:44;;;;;;;19.90;6.93;;;;;;;16.72;80.34;100271.25;5028340;28;20029;-85
2022/10/29 06:06:09;;;;;;;11.63;5.43;;;;;;;16.77;80.41;100284.94;5029210;28;20346;-85
2022/10/29 06:08:34;;;;;;;23.47;7.53;;;;;;;16.80;79.95;100273.34;5029072;28;20087;-85
2022/10/29 06:11:01;;;;;;;19.93;6.27;;;;;;;16.81;79.36;100272.22;5029113;28;20255;-86
2022/10/29 06:13:26;;;;;;;19.38;4.75;;;;;;;16.80;79.24;100273.34;5029216;28;20410;-86
2022/10/29 06:15:56;;;;;;;17.53;5.47;;;;;;;16.74;79.47;100269.03;5029698;28;20026;-85
2022/10/29 06:18:21;;;;;;;16.15;5.35;;;;;;;16.82;79.53;100278.56;5029569;28;20437;-83
2022/10/29 06:20:46;;;;;;;14.03;7.03;;;;;;;16.78;79.02;100270.88;5033478;28;20116;-86
2022/10/29 06:23:11;;;;;;;21.07;6.43;;;;;;;16.92;78.87;100276.47;5032417;28;20254;-84
2022/10/29 06:25:37;;;;;;;14.23;4.78;;;;;;;16.86;79.23;100265.84;5033161;28;20789;-87
2022/10/29 06:28:07;;;;;;;13.45;5.75;;;;;;;16.86;79.16;100274.91;5033015;28;20569;-82
2022/10/29 06:30:34;;;;;;;24.67;6.75;;;;;;;16.85;79.42;100270.53;5033410;28;20064;-85
2022/10/29 06:33:00;;;;;;;12.43;4.63;;;;;;;16.90;78.82;100259.44;5032351;28;20164;-86
2022/10/29 06:35:26;;;;;;;17.45;5.22;;;;;;;16.93;78.62;100263.53;5032749;28;20124;-85
2022/10/29 06:37:51;;;;;;;13.88;5.40;;;;;;;16.98;78.57;100268.16;5033172;28;20039;-84
2022/10/29 06:40:17;;;;;;;14.60;5.43;;;;;;;16.91;79.78;100271.28;5032413;28;20502;-85
2022/10/29 06:42:42;;;;;;;14.35;5.43;;;;;;;16.76;80.81;100275.06;5032466;28;20056;-85
2022/10/29 06:45:09;;;;;;;15.32;5.57;;;;;;;16.88;79.70;100283.69;5014668;28;20033;-82
2022/10/29 06:47:42;;;;;;;16.70;5.05;;;;;;;16.96;78.81;100262.13;5032551;28;20551;-86
2022/10/29 06:50:09;;;;;;;12.68;5.22;;;;;;;17.02;78.75;100263.69;5032411;28;20033;-86
2022/10/29 06:52:35;;;;;;;16.30;5.32;;;;;;;16.90;79.84;100267.69;5032041;28;20025;-87
2022/10/29 06:55:01;;;;;;;16.15;5.75;;;;;;;16.87;80.23;100268.28;5015198;28;20387;-83
2022/10/29 06:57:27;;;;;;;19.90;6.35;;;;;;;16.89;79.94;100259.72;5012410;28;20022;-85
2022/10/29 06:59:53;;;;;;;14.13;6.78;;;;;;;16.90;80.20;100270.44;5013974;28;20034;-85
2022/10/29 07:02:20;;;;;;;10.93;5.00;;;;;;;16.91;80.63;100272.09;5015201;28;20036;-86
2022/10/29 07:04:45;;;;;;;16.80;5.30;;;;;;;16.93;80.51;100271.78;5031746;28;20112;-86
2022/10/29 07:07:10;;;;;;;11.50;4.17;;;;;;;17.05;79.84;100263.09;5031737;28;20132;-85
2022/10/29 07:09:35;;;;;;;9.70;4.30;;;;;;;17.10;79.35;100260.28;5031736;28;20021;-84
2022/10/29 07:12:00;;;;;;;21.23;6.77;;;;;;;17.21;78.38;100262.91;5031307;28;20255;-86
2022/10/29 07:14:26;;;;;;;14.50;5.90;;;;;;;17.18;78.36;100258.81;5030657;28;20274;-85
2022/10/29 07:16:52;;;;;;;13.53;5.80;;;;;;;17.16;78.56;100255.56;5031767;28;20272;-87
2022/10/29 07:19:17;;;;;;;14.05;6.28;;;;;;;17.21;78.45;100263.72;5031903;28;20029;-87
2022/10/29 07:21:42;;;;;;;15.77;5.15;;;;;;;17.10;78.14;100270.47;5031734;28;20299;-83
2022/10/29 07:24:08;;;;;;;22.00;4.75;;;;;;;17.11;78.19;100261.09;5030817;28;20044;-88
2022/10/29 07:26:34;;;;;;;12.60;4.35;;;;;;;17.08;78.25;100268.03;5031499;28;20033;-87
2022/10/29 07:29:00;;;;;;;20.70;5.28;;;;;;;17.14;78.12;100266.88;5031667;28;20034;-83
2022/10/29 07:31:25;;;;;;;11.77;5.37;;;;;;;17.09;78.05;100266.91;5031527;28;20650;-87
2022/10/29 07:33:50;;;;;;;21.98;6.68;;;;;;;17.22;77.71;100270.88;5030792;28;20283;-84
2022/10/29 07:36:15;;;;;;;19.67;4.57;;;;;;;17.24;77.63;100287.94;5031689;28;20037;-82
2022/10/29 07:38:41;;;;;;;16.00;4.97;;;;;;;17.22;77.55;100267.31;5031696;28;20331;-82
2022/10/29 07:41:06;;;;;;;18.13;6.80;;;;;;;17.24;77.65;100278.84;5031423;28;20071;-86
2022/10/29 07:43:31;;;;;;;17.15;5.40;;;;;;;17.29;77.29;100270.50;5030790;28;20283;-84
2022/10/29 07:45:56;;;;;;;16.30;5.80;;;;;;;17.29;77.28;100269.69;5031416;28;20025;-86
2022/10/29 07:48:22;;;;;;;16.40;5.10;;;;;;;17.36;77.07;100261.88;5030885;28;20290;-85
2022/10/29 07:50:48;;;;;;;20.60;5.40;;;;;;;17.41;76.92;100274.75;5029798;28;20286;-86
2022/10/29 07:53:13;;;;;;;12.00;4.03;;;;;;;17.42;76.52;100273.63;5025978;28;20530;-84
2022/10/29 07:55:39;;;;;;;11.30;4.78;;;;;;;17.35;76.66;100277.56;5031250;28;20692;-85
2022/10/29 07:58:10;;;;;;;12.03;5.00;;;;;;;17.33;76.51;100268.78;5031773;28;20116;-84
2022/10/29 08:00:37;;;;;;;13.55;7.07;;;;;;;17.42;76.24;100270.88;5030968;28;20278;-84
2022/10/29 08:03:03;;;;;;;10.73;4.13;;;;;;;17.53;76.36;100282.56;5030470;28;20047;-80
2022/10/29 08:05:29;;;;;;;19.98;5.07;;;;;;;17.50;76.43;100275.72;5029811;28;20041;-80
2022/10/29 08:07:55;;;;;;;11.43;3.55;;;;;;;17.61;75.73;100276.38;5030450;28;20057;-85
2022/10/29 08:10:22;;;;;;;16.77;5.28;;;;;;;17.58;75.73;100280.53;5013521;28;20030;-86
2022/10/29 08:12:56;;;;;;;8.95;4.90;;;;;;;17.66;75.78;100275.47;5030778;28;20044;-88
2022/10/29 08:15:22;;;;;;;19.50;4.85;;;;;;;17.65;75.71;100274.66;5030803;28;20058;-89
2022/10/29 08:17:47;;;;;;;13.90;4.93;;;;;;;17.75;75.61;100268.16;5030565;28;20030;-82
2022/10/29 08:20:13;;;;;;;20.30;5.13;;;;;;;17.77;75.31;100276.94;5030751;28;20089;-82
2022/10/29 08:22:38;;;;;;;14.82;4.63;;;;;;;17.76;75.55;100269.78;5030126;28;20447;-86
2022/10/29 08:25:04;;;;;;;14.27;5.15;;;;;;;17.76;75.20;100272.53;5030678;28;20021;-84
2022/10/29 08:27:29;;;;;;;11.85;4.65;;;;;;;17.83;75.23;100259.19;5031032;28;20121;-86
2022/10/29 08:29:54;;;;;;;14.60;4.90;;;;;;;17.87;75.02;100262.16;5030865;28;20024;-83
2022/10/29 08:32:20;;;;;;;8.53;4.07;;;;;;;17.88;74.75;100257.47;5030380;28;20033;-83
2022/10/29 08:34:45;;;;;;;23.55;6.03;;;;;;;17.93;74.83;100251.84;5029911;28;20033;-89
2022/10/29 08:37:10;;;;;;;10.40;4.93;;;;;;;18.00;74.33;100260.53;5030346;28;20115;-83
2022/10/29 08:39:35;;;;;;;14.87;4.30;;;;;;;17.98;74.54;100262.78;5030181;28;20326;-83
2022/10/29 08:42:20;;;;;;;10.93;5.30;;;;;;;17.99;74.25;100260.84;5029281;28;20371;-84
2022/10/29 08:45:04;;;;;;;16.00;5.22;;;;;;;18.06;74.14;100255.78;5029953;28;20747;-86
2022/10/29 08:47:54;;;;;;;8.38;3.45;;;;;;;18.08;73.97;100254.31;5030366;28;20075;-81
2022/10/29 08:50:27;;;;;;;11.43;4.20;;;;;;;18.15;74.03;100264.16;5029745;28;20048;-81
2022/10/29 08:52:53;;;;;;;23.85;5.60;;;;;;;18.17;73.54;100251.72;5029958;28;20049;-80
2022/10/29 08:55:33;;;;;;;22.02;6.60;;;;;;;18.25;73.70;100252.13;5029999;28;20119;-81
2022/10/29 08:58:23;;;;;;;14.27;4.93;;;;;;;18.33;73.43;100240.38;5024025;28;20037;-84
2022/10/29 09:01:54;;;;;;;10.02;3.35;;;;;;;18.29;72.83;100245.72;5030411;28;20029;-82
2022/10/29 09:05:22;;;;;;;9.20;4.10;;;;;;;18.36;72.92;100247.25;4946169;28;20039;-82
2022/10/29 09:15:44;;;;;;;11.68;4.40;;;;;;;18.77;71.81;100248.38;4851638;29;20102;-80
2022/10/29 09:18:31;;;;;;;12.60;4.55;;;;;;;18.87;71.57;100250.09;4917213;29;20503;-85
2022/10/29 09:21:02;;;;;;;10.48;4.90;;;;;;;18.88;71.21;100237.91;4984200;28;20045;-86
2022/10/29 09:23:46;;;;;;;17.95;5.07;;;;;;;18.98;70.84;100239.59;4989872;28;20061;-84
2022/10/29 09:26:39;;;;;;;27.13;15.82;;;;;;;19.00;70.47;100242.88;4990306;28;20125;-81
2022/10/29 09:29:13;;;;;;;36.63;19.88;;;;;;;19.13;70.52;100244.00;4989810;28;20121;-82
2022/10/29 09:31:46;;;;;;;17.05;6.10;;;;;;;19.10;70.02;100244.63;4985077;28;20034;-83
2022/10/29 09:34:41;;;;;;;13.55;4.47;;;;;;;19.11;69.03;100238.78;4988060;28;20049;-82
2022/10/29 09:37:16;;;;;;;20.27;4.55;;;;;;;19.15;69.75;100243.69;4990368;28;20026;-81
2022/10/29 09:39:45;;;;;;;12.13;4.28;;;;;;;19.07;69.47;100243.28;4990615;28;20037;-82
2022/10/29 09:42:18;;;;;;;14.35;5.07;;;;;;;19.18;69.79;100249.41;4991095;28;20064;-81
2022/10/29 09:44:56;;;;;;;13.10;4.07;;;;;;;19.09;70.17;100245.72;4990310;28;20077;-81
2022/10/29 09:47:34;;;;;;;17.30;5.15;;;;;;;19.13;69.65;100244.00;4990453;28;20082;-81
2022/10/29 09:50:09;;;;;;;14.50;5.20;;;;;;;19.12;69.69;100242.34;4990131;28;20066;-80
2022/10/29 09:52:38;;;;;;;14.70;5.40;;;;;;;19.23;69.61;100229.97;4988067;28;20038;-81
2022/10/29 09:55:05;;;;;;;9.23;4.43;;;;;;;19.17;69.22;100228.44;4992511;28;20547;-80
2022/10/29 09:57:35;;;;;;;12.98;4.03;;;;;;;19.20;69.24;100230.56;4994431;28;20034;-81
2022/10/29 10:00:16;;;;;;;18.23;5.90;;;;;;;19.31;69.48;100231.16;4984065;28;20031;-81
2022/10/29 10:02:53;;;;;;;8.68;3.15;;;;;;;19.42;69.01;100220.69;4992432;28;20096;-81
2022/10/29 10:05:30;;;;;;;14.43;4.07;;;;;;;19.39;69.39;100220.47;4974532;28;20512;-83
2022/10/29 10:08:13;;;;;;;16.83;4.07;;;;;;;19.43;69.48;100213.19;5008936;28;20042;-85
2022/10/29 10:10:51;;;;;;;12.73;4.75;;;;;;;19.51;68.92;100206.91;5033930;28;20025;-84
2022/10/29 10:13:17;;;;;;;37.50;5.88;;;;;;;19.51;68.75;100217.16;5033514;28;20048;-84
2022/10/29 10:15:51;;;;;;;18.83;4.70;;;;;;;19.52;68.89;100207.72;5033250;28;20402;-84
2022/10/29 10:18:25;;;;;;;13.95;4.72;;;;;;;19.55;68.81;100218.97;5033222;28;20383;-81
2022/10/29 10:21:02;;;;;;;12.55;4.65;;;;;;;19.61;68.31;100216.88;5033907;28;20029;-82
2022/10/29 10:23:43;;;;;;;12.45;3.63;;;;;;;19.66;68.59;100215.94;5032224;28;20133;-90
2022/10/29 10:26:40;;;;;;;16.00;4.35;;;;;;;19.70;67.63;100228.03;5033165;28;20120;-79
2022/10/29 10:29:15;;;;;;;12.27;4.18;;;;;;;19.77;67.94;100222.06;5033328;28;20029;-82
2022/10/29 10:31:43;;;;;;;17.70;5.28;;;;;;;19.79;68.43;100222.56;5033627;28;20434;-83
2022/10/29 10:34:20;;;;;;;11.07;4.10;;;;;;;19.71;68.87;100227.69;5032669;28;20128;-84
2022/10/29 10:37:01;;;;;;;12.48;7.05;;;;;;;19.81;67.97;100221.06;5033320;28;20505;-82
2022/10/29 10:39:29;;;;;;;15.43;5.47;;;;;;;19.90;67.86;100207.31;5033280;28;20030;-83
2022/10/29 10:41:57;;;;;;;15.15;5.25;;;;;;;20.02;67.38;100203.13;5033483;28;20033;-82
2022/10/29 10:44:22;;;;;;;9.65;4.13;;;;;;;19.93;67.50;100203.88;5032906;28;20034;-82
2022/10/29 10:46:51;;;;;;;24.20;5.22;;;;;;;19.87;68.04;100196.06;5033072;28;20541;-82
2022/10/29 10:49:26;;;;;;;13.20;4.05;;;;;;;19.89;68.04;100200.13;5032706;28;20032;-82
2022/10/29 10:51:55;;;;;;;9.55;4.63;;;;;;;20.09;67.50;100197.16;5033483;28;20029;-82
2022/10/29 10:55:00;;;;;;;25.85;4.85;;;;;;;20.15;67.45;100201.44;5032848;28;20033;-83
2022/10/29 10:57:39;;;;;;;14.70;4.65;;;;;;;20.15;67.35;100202.25;4951123;28;20116;-78
2022/10/29 11:00:06;;;;;;;17.13;5.20;;;;;;;20.27;66.72;100192.50;5024811;28;20482;-78
2022/10/29 11:02:53;;;;;;;14.15;5.18;;;;;;;20.36;66.92;100193.34;5029280;28;20151;-78
2022/10/29 11:05:28;;;;;;;14.68;4.47;;;;;;;20.30;67.22;100186.31;5031425;28;20087;-79
2022/10/29 11:07:57;;;;;;;10.13;3.60;;;;;;;20.22;67.22;100181.59;5045822;28;20056;-79
2022/10/29 11:10:33;;;;;;;20.80;3.75;;;;;;;20.21;67.54;100193.78;5051891;28;20523;-82
2022/10/29 11:13:02;;;;;;;17.67;5.05;;;;;;;20.30;66.66;100197.38;5023100;28;20072;-81
2022/10/29 11:15:43;;;;;;;16.48;6.15;;;;;;;20.48;66.74;100186.38;5032398;28;20359;-83
2022/10/29 11:18:18;;;;;;;15.50;5.65;;;;;;;20.48;66.35;100197.47;5032963;28;20563;-84
2022/10/29 11:20:53;;;;;;;15.13;5.05;;;;;;;20.64;65.35;100204.16;5033260;28;20037;-85
2022/10/29 11:23:32;;;;;;;18.60;4.88;;;;;;;20.61;64.24;100202.03;5032367;28;20420;-83
2022/10/29 11:26:04;;;;;;;11.88;4.05;;;;;;;20.62;65.16;100209.22;5032631;28;20033;-84
2022/10/29 11:28:38;;;;;;;23.15;4.70;;;;;;;20.53;65.06;100200.06;5032791;28;20029;-85
2022/10/29 11:31:20;;;;;;;13.50;3.50;;;;;;;20.52;65.51;100187.38;5032255;28;20041;-84
2022/10/29 11:34:14;;;;;;;26.77;5.65;;;;;;;20.37;65.50;100186.69;5030792;28;20041;-81
2022/10/29 11:36:49;;;;;;;27.65;3.72;;;;;;;20.48;65.19;100184.41;5034033;28;20474;-83
2022/10/29 11:39:21;;;;;;;13.82;3.92;;;;;;;20.62;64.45;100187.06;5043108;28;20116;-82